Time;durP1;ratioP1;P1;durP2;ratioP2;P2;SDS_P1;SDS_P2;PMS_P1;PMS_P2;Temp;Humidity;BMP_temperature;BMP_pressure;BME280_temperature;BME280_humidity;BME280_pressure;Samples;Min_cycle;Max_cycle;Signal;HPM_P1;HPM_P2
2022/11/17 00:01:19;;;;;;;41.05;16.95;;;;;;;1.08;57.43;99326.34;6251668;22;20128;-91
2022/11/17 00:03:52;;;;;;;43.40;17.50;;;;;;;0.70;57.65;99270.72;6225587;22;20022;-93
2022/11/17 00:06:34;;;;;;;43.85;19.13;;;;;;;1.09;57.41;99314.53;6201542;22;20030;-94
2022/11/17 00:09:18;;;;;;;43.75;19.75;;;;;;;1.07;58.02;99322.03;6202527;22;20141;-95
2022/11/17 00:22:09;;;;;;;38.97;17.98;;;;;;;0.42;58.30;99232.13;6280921;22;20042;-93
2022/11/17 00:25:39;;;;;;;44.47;19.17;;;;;;;0.87;58.78;99311.84;6228550;22;20022;-93
2022/11/17 00:28:54;;;;;;;51.25;18.45;;;;;;;0.95;58.45;99305.19;6203400;22;20044;-93
2022/11/17 00:34:26;;;;;;;47.97;19.63;;;;;;;0.88;59.09;99286.53;6125644;23;19952;-93
2022/11/17 00:36:54;;;;;;;51.25;21.95;;;;;;;0.90;59.08;99284.41;6100768;23;20166;-94
2022/11/17 00:39:22;;;;;;;57.92;22.20;;;;;;;0.97;58.70;99297.69;6077187;23;20013;-93
2022/11/17 00:41:58;;;;;;;58.33;22.15;;;;;;;0.99;59.19;99300.94;6124919;23;20534;-91
2022/11/17 00:44:45;;;;;;;48.22;22.38;;;;;;;0.68;59.03;99249.41;6125334;23;20400;-94
2022/11/17 00:47:34;;;;;;;58.10;21.70;;;;;;;0.97;59.17;99292.31;6126320;23;20048;-89
2022/11/17 00:50:00;;;;;;;52.03;21.80;;;;;;;0.80;59.28;99264.66;6100471;23;20017;-93
2022/11/17 00:52:47;;;;;;;63.40;22.65;;;;;;;0.39;58.96;99197.69;6134803;22;20117;-93
2022/11/17 01:03:10;;;;;;;52.55;20.80;;;;;;;0.87;59.66;99279.53;6286050;22;20024;-91
2022/11/17 01:05:36;;;;;;;52.97;20.55;;;;;;;0.76;59.64;99269.69;6227984;22;20015;-92
2022/11/17 01:08:02;;;;;;;53.60;21.98;;;;;;;0.68;59.60;99278.22;6201692;22;20027;-92
2022/11/17 01:10:29;;;;;;;50.80;22.20;;;;;;;0.71;59.97;99258.88;6200892;22;20012;-93
2022/11/17 01:12:55;;;;;;;46.30;21.15;;;;;;;0.72;59.79;99267.75;6201414;22;20016;-93
2022/11/17 01:15:21;;;;;;;45.97;19.95;;;;;;;0.69;59.86;99247.53;6201092;22;20024;-93
2022/11/17 01:17:50;;;;;;;45.53;20.60;;;;;;;0.75;59.82;99257.31;6200792;22;20065;-94
2022/11/17 01:20:17;;;;;;;48.25;20.33;;;;;;;0.65;59.66;99243.72;6250740;22;20016;-92
2022/11/17 01:23:47;;;;;;;53.53;21.40;;;;;;;0.83;59.82;99256.06;6199469;22;20433;-90
2022/11/17 01:26:18;;;;;;;52.22;20.42;;;;;;;0.42;59.90;99178.34;6199445;22;20050;-90
2022/11/17 01:28:48;;;;;;;54.35;21.40;;;;;;;0.54;59.87;99199.75;6250364;22;20526;-91
2022/11/17 01:31:25;;;;;;;52.47;21.52;;;;;;;0.66;60.10;99211.22;6176106;22;20078;-90
2022/11/17 01:34:41;;;;;;;55.80;23.80;;;;;;;0.86;60.17;99239.41;6224617;22;20419;-93
2022/11/17 01:37:36;;;;;;;57.67;25.02;;;;;;;0.91;60.29;99242.97;6199919;22;20015;-93
2022/11/17 01:40:06;;;;;;;61.35;24.15;;;;;;;0.88;59.76;99239.97;6200465;22;20020;-92
2022/11/17 01:42:32;;;;;;;54.60;22.33;;;;;;;0.76;59.90;99236.59;6227253;22;20041;-93
2022/11/17 01:45:17;;;;;;;56.17;21.95;;;;;;;0.65;60.25;99233.78;6202285;22;20065;-92
2022/11/17 01:47:52;;;;;;;52.80;21.08;;;;;;;0.54;60.67;99210.53;6201101;22;20026;-93
2022/11/17 01:50:31;;;;;;;53.67;22.98;;;;;;;0.72;60.79;99222.84;6200216;22;20019;-90
2022/11/17 01:53:01;;;;;;;53.88;21.98;;;;;;;0.50;60.42;99187.03;6226377;22;20019;-93
2022/11/17 01:55:35;;;;;;;55.72;20.95;;;;;;;0.65;60.42;99204.19;6225959;22;20022;-91
2022/11/17 01:58:34;;;;;;;51.88;21.58;;;;;;;0.90;60.45;99233.28;6225236;22;20050;-90
2022/11/17 02:01:00;;;;;;;47.83;21.08;;;;;;;0.75;60.75;99208.06;6194617;23;20016;-92
2022/11/17 02:03:33;;;;;;;48.38;20.98;;;;;;;0.98;60.11;99233.91;6195703;23;20158;-93
2022/11/17 02:06:31;;;;;;;48.83;21.48;;;;;;;0.84;60.12;99210.06;6194993;23;20513;-93
2022/11/17 02:08:59;;;;;;;47.97;20.35;;;;;;;1.03;60.19;99233.97;6242414;23;20042;-93
2022/11/17 02:11:28;;;;;;;53.42;20.48;;;;;;;0.85;60.30;99200.13;6195264;23;20019;-92
2022/11/17 02:13:58;;;;;;;51.97;20.80;;;;;;;0.91;60.03;99223.34;6246552;22;20335;-93
2022/11/17 02:16:24;;;;;;;47.38;20.60;;;;;;;0.82;60.46;99222.13;6220686;23;20016;-92
2022/11/17 02:18:51;;;;;;;50.95;21.42;;;;;;;0.54;60.85;99205.13;6203087;23;20084;-90
2022/11/17 02:22:15;;;;;;;47.03;19.42;;;;;;;0.65;61.11;99219.53;6249242;23;20012;-93
2022/11/17 02:25:17;;;;;;;45.38;19.15;;;;;;;0.70;61.28;99215.03;6225567;23;20531;-92
2022/11/17 02:27:54;;;;;;;47.50;19.08;;;;;;;0.37;61.15;99159.50;6202751;23;20016;-92
2022/11/17 02:34:18;;;;;;;72.47;29.73;;;;;;;0.19;61.58;99138.28;6276408;22;20027;-92
2022/11/17 02:36:50;;;;;;;63.40;26.40;;;;;;;0.55;61.71;99179.06;6132130;23;20022;-92
2022/11/17 02:39:19;;;;;;;56.28;25.02;;;;;;;0.74;61.57;99188.44;6132086;23;20021;-92
2022/11/17 02:41:55;;;;;;;72.20;28.92;;;;;;;0.66;61.40;99157.41;6082638;23;20513;-91
2022/11/17 02:47:57;;;;;;;51.58;21.27;;;;;;;0.35;61.38;99121.28;6137521;23;20025;-92
2022/11/17 02:50:26;;;;;;;50.60;20.00;;;;;;;0.76;61.59;99180.09;6110344;23;20017;-92
2022/11/17 02:52:58;;;;;;;48.75;19.33;;;;;;;0.62;61.35;99158.97;6157230;23;20021;-93
2022/11/17 02:55:32;;;;;;;36.72;18.20;;;;;;;0.58;61.38;99141.72;6082625;23;20100;-90
2022/11/17 02:57:59;;;;;;;42.85;19.08;;;;;;;0.79;61.31;99156.19;6156309;23;20087;-93
2022/11/17 03:04:30;;;;;;;37.10;18.55;;;;;;;1.03;60.95;99174.75;6121212;23;20079;-91
2022/11/17 03:07:27;;;;;;;42.45;18.35;;;;;;;1.00;61.06;99169.88;6143126;22;20531;-88
2022/11/17 03:10:41;;;;;;;39.05;18.38;;;;;;;1.00;61.03;99167.19;6228353;22;20019;-94
2022/11/17 03:20:43;;;;;;;37.75;16.63;;;;;;;1.04;61.12;99165.59;6252619;22;20041;-92
2022/11/17 03:23:12;;;;;;;43.28;17.85;;;;;;;0.66;60.80;99127.81;6203823;22;20025;-92
2022/11/17 03:25:43;;;;;;;38.80;18.15;;;;;;;0.62;61.18;99137.44;6218929;22;20019;-88
2022/11/17 03:29:00;;;;;;;44.65;19.70;;;;;;;0.66;61.79;99168.19;6220362;22;20174;-89
2022/11/17 03:31:37;;;;;;;45.95;19.08;;;;;;;0.21;62.30;99096.66;6221408;22;20046;-93
2022/11/17 03:34:08;;;;;;;46.63;19.33;;;;;;;0.66;62.03;99143.97;6223111;22;20026;-91
2022/11/17 03:36:42;;;;;;;43.95;19.67;;;;;;;0.44;62.07;99105.53;6242450;22;20019;-93
2022/11/17 03:39:40;;;;;;;46.30;18.40;;;;;;;0.56;61.81;99114.25;6232733;22;20098;-89
2022/11/17 03:42:33;;;;;;;49.50;18.58;;;;;;;0.89;61.31;99166.25;6111176;23;20024;-93
2022/11/17 03:49:25;;;;;;;46.53;19.23;;;;;;;0.62;61.07;99125.88;6158801;23;20149;-93
2022/11/17 03:52:56;;;;;;;41.88;19.15;;;;;;;0.84;61.40;99156.25;6134826;23;20072;-89
2022/11/17 03:55:53;;;;;;;54.47;20.80;;;;;;;0.82;60.81;99149.50;6132343;23;20025;-89
2022/11/17 03:58:33;;;;;;;54.00;22.52;;;;;;;0.64;61.05;99126.44;6087323;23;20148;-89
2022/11/17 04:01:02;;;;;;;49.75;22.27;;;;;;;0.36;61.03;99089.81;6134692;23;20025;-92
2022/11/17 04:03:38;;;;;;;53.90;20.38;;;;;;;0.77;61.14;99150.25;6139487;23;20018;-90
2022/11/17 04:07:07;;;;;;;42.13;19.67;;;;;;;0.73;61.01;99143.78;6157432;23;20041;-91
2022/11/17 04:15:55;;;;;;;41.70;18.60;;;;;;;0.63;61.31;99139.09;6156889;23;20039;-93
2022/11/17 04:16:41;;;;;;;37.28;17.45;;;;;;;0.28;61.28;99076.84;6158199;23;20021;-92
2022/11/17 04:19:07;;;;;;;41.90;17.92;;;;;;;0.62;61.38;99132.06;6197728;22;20042;-90
2022/11/17 04:21:34;;;;;;;41.78;18.15;;;;;;;0.58;61.30;99125.56;6228232;22;20026;-93
2022/11/17 04:24:26;;;;;;;41.97;17.87;;;;;;;0.60;61.32;99144.16;6225379;22;20003;-89
2022/11/17 04:30:04;;;;;;;50.80;18.25;;;;;;;0.65;61.29;99134.25;6229100;23;20039;-90
2022/11/17 04:32:30;;;;;;;44.42;18.73;;;;;;;0.65;61.09;99138.81;6228187;23;20044;-91
2022/11/17 04:35:21;;;;;;;49.40;20.15;;;;;;;0.73;60.96;99142.94;6203453;23;20101;-91
2022/11/17 04:37:47;;;;;;;50.10;20.23;;;;;;;0.33;61.17;99101.06;6203064;23;20016;-92
2022/11/17 04:40:27;;;;;;;44.53;18.55;;;;;;;0.15;61.14;99060.00;6202829;23;20016;-92
2022/11/17 04:42:57;;;;;;;40.15;18.73;;;;;;;0.47;61.39;99118.47;6197464;23;20035;-93
2022/11/17 04:45:23;;;;;;;44.78;18.73;;;;;;;0.52;61.29;99121.19;6222595;23;20012;-91
2022/11/17 04:48:03;;;;;;;37.67;18.48;;;;;;;0.55;61.35;99136.81;6198156;23;20027;-92
2022/11/17 04:50:31;;;;;;;43.30;17.40;;;;;;;0.51;61.37;99129.53;6222948;23;20012;-92
2022/11/17 04:53:03;;;;;;;;;;;;;;;0.69;61.20;99140.75;6226786;23;20026;-90
2022/11/17 04:55:31;;;;;;;38.17;16.65;;;;;;;0.68;61.20;99147.19;6201117;23;19953;-91
2022/11/17 04:58:00;;;;;;;40.45;17.00;;;;;;;0.45;61.16;99126.75;6197733;23;20024;-91
2022/11/17 05:00:26;;;;;;;37.70;16.77;;;;;;;0.32;61.61;99115.59;6227631;23;20045;-91
2022/11/17 05:02:53;;;;;;;40.63;16.40;;;;;;;0.34;61.68;99108.09;6272755;23;20020;-91
2022/11/17 05:06:17;;;;;;;42.60;17.85;;;;;;;0.53;61.52;99149.72;6272169;23;20034;-92
2022/11/17 05:08:43;;;;;;;39.55;17.45;;;;;;;-0.16;62.44;99088.38;6222282;22;20008;-89
2022/11/17 05:14:19;;;;;;;42.28;15.93;;;;;;;-0.14;62.07;99063.94;6245043;23;20002;-88
2022/11/17 05:17:15;;;;;;;40.78;16.48;;;;;;;-0.17;61.83;99067.13;6246089;23;20000;-89
2022/11/17 05:19:46;;;;;;;37.55;15.63;;;;;;;0.32;62.02;99129.03;6272602;23;20028;-87
2022/11/17 05:25:04;;;;;;;40.70;15.88;;;;;;;0.48;61.48;99141.59;6241025;23;20007;-89
2022/11/17 05:30:17;;;;;;;32.97;15.07;;;;;;;0.22;61.64;99117.06;6193795;23;20066;-92
2022/11/17 05:32:43;;;;;;;36.70;14.95;;;;;;;0.41;62.29;99146.34;6193921;23;20016;-92
2022/11/17 05:35:13;;;;;;;34.20;14.60;;;;;;;0.28;61.56;99125.22;6194665;23;20089;-91
2022/11/17 05:37:39;;;;;;;31.77;13.77;;;;;;;0.44;61.29;99146.66;6144544;23;20027;-90
2022/11/17 05:40:06;;;;;;;31.20;14.93;;;;;;;0.41;61.27;99141.78;6141400;23;20040;-92
2022/11/17 05:42:58;;;;;;;32.90;14.80;;;;;;;0.46;61.28;99125.72;6196860;23;20059;-91
2022/11/17 05:45:30;;;;;;;41.28;17.27;;;;;;;0.50;61.37;99123.34;6191818;23;20075;-93
2022/11/17 05:47:56;;;;;;;49.70;18.60;;;;;;;0.25;61.22;99088.09;6163578;23;20020;-88
2022/11/17 05:50:22;;;;;;;45.90;18.00;;;;;;;0.58;61.14;99133.63;6187268;23;20019;-88
2022/11/17 05:52:48;;;;;;;53.15;18.02;;;;;;;0.43;61.16;99103.88;6213288;23;20111;-86
2022/11/17 05:55:14;;;;;;;37.60;16.55;;;;;;;0.62;61.17;99137.44;6212257;23;20020;-87
2022/11/17 05:57:45;;;;;;;39.22;16.60;;;;;;;0.77;60.91;99144.88;6191247;23;20016;-91
2022/11/17 06:00:16;;;;;;;35.10;14.50;;;;;;;0.40;61.16;99097.16;6189488;23;20054;-91
2022/11/17 06:12:07;;;;;;;26.65;12.48;;;;;;;0.84;60.51;99139.31;6224826;23;20016;-92
2022/11/17 06:14:38;;;;;;;26.35;12.15;;;;;;;0.43;60.29;99067.06;6226020;23;20020;-92
2022/11/17 06:17:32;;;;;;;27.30;12.30;;;;;;;0.83;60.81;99137.66;6200311;23;20024;-92
2022/11/17 06:20:27;;;;;;;29.15;11.27;;;;;;;0.53;60.90;99116.63;6046660;23;20465;-92
2022/11/17 06:22:56;;;;;;;29.70;11.10;;;;;;;0.76;60.86;99139.75;6043407;23;20042;-92
2022/11/17 06:25:23;;;;;;;22.48;10.13;;;;;;;0.69;61.17;99142.63;5996120;23;20030;-93
2022/11/17 06:28:14;;;;;;;23.80;9.30;;;;;;;0.33;60.62;99074.19;6043267;23;20019;-92
2022/11/17 06:31:41;;;;;;;18.58;9.68;;;;;;;0.69;61.14;99140.75;6020136;23;20540;-93
2022/11/17 06:34:25;;;;;;;18.67;8.93;;;;;;;0.36;60.88;99100.56;5995718;23;20054;-92
2022/11/17 06:36:54;;;;;;;18.75;9.00;;;;;;;0.20;60.81;99070.84;6019932;23;20130;-93
2022/11/17 06:39:21;;;;;;;16.85;8.63;;;;;;;0.53;60.89;99122.84;6021600;23;20461;-89
2022/11/17 06:43:12;;;;;;;22.27;9.48;;;;;;;0.68;60.68;99139.13;6068775;23;20167;-91
2022/11/17 06:45:44;;;;;;;32.20;9.20;;;;;;;0.02;61.35;99073.03;6019994;23;20029;-91
2022/11/17 06:48:28;;;;;;;31.08;9.18;;;;;;;-0.12;61.75;99072.59;5997752;23;20022;-90
2022/11/17 06:50:55;;;;;;;38.13;8.90;;;;;;;0.35;61.75;99129.34;6074863;22;20469;-90
2022/11/17 06:54:13;;;;;;;44.92;10.77;;;;;;;0.62;61.57;99137.44;6225175;22;20077;-91
2022/11/17 06:56:39;;;;;;;33.40;10.07;;;;;;;0.56;61.01;99106.16;6200249;22;20031;-90
2022/11/17 06:59:06;;;;;;;22.83;9.20;;;;;;;0.37;61.09;99134.47;6224926;22;20012;-93
2022/11/17 07:01:32;;;;;;;18.10;9.80;;;;;;;0.18;61.67;99089.09;6200097;22;20016;-92
2022/11/17 07:04:12;;;;;;;19.08;10.07;;;;;;;0.31;60.95;99087.09;6251863;22;20096;-91
2022/11/17 07:07:44;;;;;;;22.40;12.00;;;;;;;0.47;61.31;99119.28;6202628;22;20024;-93
2022/11/17 07:10:37;;;;;;;23.10;11.30;;;;;;;0.29;61.56;99129.53;6228083;22;20030;-91
2022/11/17 07:13:03;;;;;;;20.20;8.93;;;;;;;0.20;62.39;99124.59;6228494;22;20109;-91
2022/11/17 07:15:29;;;;;;;17.08;9.57;;;;;;;0.09;61.93;99119.31;6226411;22;20023;-90
2022/11/17 07:21:33;;;;;;;19.38;9.52;;;;;;;0.34;61.57;99102.72;6126613;23;20573;-93
2022/11/17 07:24:01;;;;;;;21.30;10.52;;;;;;;0.36;61.99;99112.13;6105083;23;20013;-92
2022/11/17 07:26:30;;;;;;;23.83;11.20;;;;;;;0.66;61.44;99129.69;6107386;23;20022;-91
2022/11/17 07:29:17;;;;;;;22.83;11.77;;;;;;;0.32;61.32;99051.88;6055528;23;20404;-92
2022/11/17 07:31:59;;;;;;;31.25;13.20;;;;;;;0.86;60.99;99142.53;6045787;23;20023;-91
2022/11/17 07:34:52;;;;;;;26.30;12.27;;;;;;;0.66;61.42;99138.59;6020468;23;20410;-94
2022/11/17 07:37:18;;;;;;;32.97;12.85;;;;;;;0.70;61.67;99128.94;6019365;23;20622;-89
2022/11/17 07:40:10;;;;;;;26.42;13.02;;;;;;;0.84;61.18;99131.22;5999370;23;20019;-91
2022/11/17 07:42:37;;;;;;;28.85;13.27;;;;;;;0.75;60.53;99122.78;6020635;23;20018;-86
2022/11/17 07:45:06;;;;;;;35.65;13.55;;;;;;;0.59;60.67;99088.72;6065413;23;20026;-89
2022/11/17 07:47:33;;;;;;;42.30;14.73;;;;;;;0.59;60.79;99102.16;6041454;23;20022;-88
2022/11/17 07:50:00;;;;;;;48.65;14.40;;;;;;;0.72;61.09;99131.38;6041000;23;20023;-87
2022/11/17 07:52:26;;;;;;;29.58;14.18;;;;;;;0.63;61.06;99130.19;6041287;23;20054;-88
2022/11/17 07:54:52;;;;;;;34.22;13.32;;;;;;;0.64;61.20;99134.53;6041331;23;20064;-88
2022/11/17 07:57:19;;;;;;;32.15;12.73;;;;;;;0.52;61.12;99107.75;6020542;23;20509;-89
2022/11/17 07:59:45;;;;;;;29.55;12.65;;;;;;;0.60;60.70;99115.38;6155237;23;20140;-90
2022/11/17 08:02:20;;;;;;;29.20;11.85;;;;;;;0.72;61.54;99144.81;6155314;23;20014;-92
2022/11/17 08:04:46;;;;;;;32.92;10.57;;;;;;;0.54;61.00;99129.84;6108125;23;20028;-91
2022/11/17 08:07:13;;;;;;;21.60;10.10;;;;;;;0.65;61.25;99136.13;6105479;23;20024;-89
2022/11/17 08:09:39;;;;;;;28.42;10.13;;;;;;;0.65;61.02;99120.81;6233561;22;20024;-91
2022/11/17 08:12:07;;;;;;;20.55;9.60;;;;;;;0.92;60.62;99138.84;6251622;22;20012;-90
2022/11/17 08:14:39;;;;;;;24.13;9.68;;;;;;;0.53;60.54;99076.28;6251486;22;20019;-89
2022/11/17 08:17:11;;;;;;;16.50;9.23;;;;;;;0.95;60.61;99135.63;6201955;22;20066;-91
2022/11/17 08:19:37;;;;;;;23.10;10.15;;;;;;;0.78;60.45;99089.19;6240585;22;20015;-90
2022/11/17 08:25:23;;;;;;;18.52;10.15;;;;;;;0.98;60.45;99110.09;6278966;22;20018;-89
2022/11/17 08:27:50;;;;;;;20.95;10.55;;;;;;;1.10;59.88;99100.78;6277876;22;20020;-90
2022/11/17 08:31:19;;;;;;;28.13;11.77;;;;;;;1.10;59.92;99067.69;6262253;22;20030;-92
2022/11/17 08:33:51;;;;;;;20.92;11.05;;;;;;;1.20;59.32;99062.38;6225242;22;20073;-89
2022/11/17 08:36:18;;;;;;;19.30;10.73;;;;;;;1.51;58.92;99122.66;6199967;22;20392;-88
2022/11/17 08:38:44;;;;;;;19.27;10.52;;;;;;;1.15;58.74;99098.13;6276815;22;20012;-90
2022/11/17 08:41:10;;;;;;;17.73;10.30;;;;;;;1.11;59.20;99099.72;6255210;22;20016;-89
2022/11/17 08:43:36;;;;;;;16.20;8.48;;;;;;;0.94;59.27;99093.66;6254393;22;20022;-89
2022/11/17 08:46:04;;;;;;;15.63;8.13;;;;;;;1.05;59.33;99127.66;6278220;22;20047;-90
2022/11/17 08:48:31;;;;;;;15.15;7.75;;;;;;;0.88;59.06;99105.44;6224876;22;20012;-89
2022/11/17 08:51:03;;;;;;;20.90;8.43;;;;;;;0.86;59.08;99094.94;6249582;22;20012;-90
2022/11/17 08:53:32;;;;;;;21.30;9.02;;;;;;;0.75;58.82;99062.78;6277610;22;20058;-90
2022/11/17 08:56:23;;;;;;;18.17;8.32;;;;;;;1.06;58.90;99121.22;6277794;22;20016;-91
2022/11/17 09:01:56;;;;;;;18.70;7.75;;;;;;;1.19;57.89;99093.03;6158845;23;20440;-90
2022/11/17 09:04:22;;;;;;;12.75;7.00;;;;;;;1.12;57.54;99047.50;6185715;23;20024;-90
2022/11/17 09:06:48;;;;;;;20.05;8.48;;;;;;;1.50;57.11;99077.13;6184552;23;20066;-89
2022/11/17 09:09:14;;;;;;;18.67;7.55;;;;;;;1.34;56.96;99062.75;6158430;23;20027;-90
2022/11/17 09:11:41;;;;;;;13.45;7.22;;;;;;;1.36;56.73;99066.00;6157610;23;20017;-87
2022/11/17 09:14:10;;;;;;;17.45;6.97;;;;;;;1.23;56.92;99064.56;6157719;23;20021;-88
2022/11/17 09:16:45;;;;;;;12.68;6.40;;;;;;;1.28;56.61;99094.19;6182678;23;20028;-89
2022/11/17 09:19:19;;;;;;;11.68;6.95;;;;;;;0.91;56.75;99048.41;6158453;23;20017;-87
2022/11/17 09:21:45;;;;;;;13.45;7.30;;;;;;;1.05;57.05;99063.06;6157521;23;20034;-89
2022/11/17 09:24:11;;;;;;;12.00;6.93;;;;;;;1.36;56.83;99066.81;6182528;23;20052;-86
2022/11/17 09:26:39;;;;;;;13.77;6.78;;;;;;;1.46;56.85;99071.47;6185589;23;20025;-87
2022/11/17 09:29:08;;;;;;;11.45;6.68;;;;;;;1.75;56.82;99098.84;6159796;23;20067;-88
2022/11/17 09:31:34;;;;;;;;;;;;;;;1.62;56.75;99107.38;6158386;23;20459;-89
2022/11/17 09:34:01;;;;;;;11.13;5.25;;;;;;;1.76;55.84;99107.75;6183872;23;19916;-86
2022/11/17 09:37:12;;;;;;;9.38;5.38;;;;;;;1.98;55.66;99096.81;6158763;23;20026;-86
2022/11/17 09:39:38;;;;;;;11.63;4.90;;;;;;;1.84;55.32;99059.53;6158939;23;20028;-87
2022/11/17 09:42:04;;;;;;;10.82;5.88;;;;;;;2.18;55.29;99085.31;6185733;23;20024;-87
2022/11/17 09:44:30;;;;;;;17.83;5.65;;;;;;;2.16;55.38;99087.47;6186078;23;20121;-87
2022/11/17 09:47:22;;;;;;;11.00;5.28;;;;;;;2.06;55.47;99091.75;6157942;23;20421;-89
2022/11/17 09:49:54;;;;;;;14.32;6.40;;;;;;;1.95;55.26;99097.31;6121068;23;20057;-89
2022/11/17 09:52:30;;;;;;;11.85;5.25;;;;;;;1.44;55.83;99062.81;6072802;23;20044;-88
2022/11/17 09:55:06;;;;;;;9.73;5.28;;;;;;;1.61;55.74;99098.47;6073951;23;20018;-87
2022/11/17 09:57:48;;;;;;;9.67;5.40;;;;;;;1.26;55.70;99065.91;6072779;23;20026;-88
2022/11/17 10:00:18;;;;;;;10.68;4.55;;;;;;;1.29;55.96;99090.47;6099760;23;20049;-86
2022/11/17 10:02:46;;;;;;;9.35;4.78;;;;;;;0.92;55.72;99050.84;6122701;23;20026;-88
2022/11/17 10:05:15;;;;;;;9.77;5.07;;;;;;;0.80;55.97;99030.56;6120556;23;20049;-87
2022/11/17 10:07:51;;;;;;;10.32;5.50;;;;;;;0.95;56.27;99060.28;6121913;23;20018;-86
2022/11/17 10:10:45;;;;;;;9.43;5.07;;;;;;;1.16;56.24;99091.69;6080981;23;20022;-88
2022/11/17 10:13:29;;;;;;;10.45;5.18;;;;;;;0.93;56.14;99073.19;6074454;23;20025;-88
2022/11/17 10:16:13;;;;;;;9.57;5.32;;;;;;;1.21;55.96;99084.72;6098818;23;20407;-87
2022/11/17 10:18:39;;;;;;;10.57;4.93;;;;;;;0.98;55.83;99045.50;6096396;23;20017;-86
2022/11/17 10:21:08;;;;;;;11.90;5.45;;;;;;;1.28;56.46;99085.31;6074117;23;20126;-86
2022/11/17 10:23:38;;;;;;;9.25;4.88;;;;;;;0.89;56.98;99037.91;6073732;23;20018;-87
2022/11/17 10:26:10;;;;;;;15.32;5.93;;;;;;;0.49;56.75;99014.13;6048533;23;20018;-87
2022/11/17 10:28:36;;;;;;;13.10;5.68;;;;;;;0.41;57.49;99022.66;6107408;23;20415;-86
2022/11/17 10:31:11;;;;;;;12.67;6.53;;;;;;;0.47;57.65;99056.63;6152809;23;20055;-85
2022/11/17 10:33:55;;;;;;;14.98;6.47;;;;;;;0.42;58.15;99061.91;6104897;23;20256;-88
2022/11/17 10:36:29;;;;;;;16.13;7.03;;;;;;;-0.08;58.11;99017.28;6103497;23;20018;-86
2022/11/17 10:39:01;;;;;;;15.55;6.32;;;;;;;0.49;58.68;99089.44;6126959;23;20026;-89
2022/11/17 10:41:54;;;;;;;11.50;5.95;;;;;;;0.58;57.81;99084.41;6091494;23;20022;-87
2022/11/17 10:44:42;;;;;;;15.13;6.20;;;;;;;-0.01;58.10;99004.47;6034163;23;20034;-89
2022/11/17 10:47:40;;;;;;;13.30;6.63;;;;;;;0.19;57.93;99026.19;6034643;23;20101;-90
2022/11/17 10:50:21;;;;;;;12.57;5.80;;;;;;;0.30;57.74;99045.13;6012644;23;20407;-89
2022/11/17 10:52:49;;;;;;;14.00;6.50;;;;;;;0.59;58.09;99092.22;5989351;23;20024;-89
2022/11/17 10:55:26;;;;;;;17.27;5.72;;;;;;;0.56;58.41;99086.53;6035708;23;20410;-88
2022/11/17 10:57:59;;;;;;;13.45;5.70;;;;;;;0.49;58.43;99083.25;6013130;23;20047;-88
2022/11/17 11:00:29;;;;;;;14.10;5.72;;;;;;;0.53;58.04;99079.81;6013270;23;20045;-88
2022/11/17 11:03:04;;;;;;;9.00;5.13;;;;;;;0.31;58.42;99074.44;6039602;23;20019;-92
2022/11/17 11:05:31;;;;;;;9.60;4.60;;;;;;;0.36;57.72;99062.94;6015792;23;20026;-90
2022/11/17 11:08:17;;;;;;;9.43;4.88;;;;;;;0.42;57.23;99045.78;5990909;23;20164;-91
2022/11/17 11:10:46;;;;;;;12.05;4.32;;;;;;;0.42;56.69;99062.72;6042899;23;20102;-87
2022/11/17 11:13:25;;;;;;;11.10;4.28;;;;;;;0.51;56.66;99065.78;6094744;23;20025;-87
2022/11/17 11:15:53;;;;;;;7.78;4.30;;;;;;;0.11;56.40;99007.84;6103350;23;20021;-90
2022/11/17 11:18:20;;;;;;;8.63;4.30;;;;;;;0.48;56.09;99060.91;6074044;23;20025;-89
2022/11/17 11:21:06;;;;;;;7.75;3.85;;;;;;;0.44;54.47;99049.84;6083404;23;20018;-89
2022/11/17 11:23:47;;;;;;;7.88;3.63;;;;;;;0.65;53.63;99071.56;6135370;23;20021;-89
2022/11/17 11:26:41;;;;;;;7.63;3.00;;;;;;;0.64;51.20;99068.06;6186321;23;20028;-90
2022/11/17 11:29:24;;;;;;;5.47;3.00;;;;;;;0.57;51.52;99035.19;6184673;23;20514;-90
2022/11/17 11:32:09;;;;;;;5.65;2.67;;;;;;;0.72;51.56;99066.78;6132914;23;20020;-88
2022/11/17 11:34:41;;;;;;;8.20;3.10;;;;;;;0.74;51.64;99063.88;6185120;23;20532;-88
2022/11/17 11:37:10;;;;;;;5.40;3.03;;;;;;;0.41;51.30;99026.16;6159693;23;20021;-89
2022/11/17 11:39:45;;;;;;;4.18;2.33;;;;;;;0.20;52.22;99010.91;6185819;23;20013;-88
2022/11/17 11:42:29;;;;;;;5.82;2.67;;;;;;;0.62;52.71;99067.50;6186133;23;20103;-88
2022/11/17 11:45:34;;;;;;;7.25;3.22;;;;;;;0.44;53.25;99057.13;6160720;23;20070;-90
2022/11/17 11:48:30;;;;;;;7.40;3.53;;;;;;;0.12;54.27;99025.56;6136624;23;20072;-91
2022/11/17 11:51:07;;;;;;;7.75;3.15;;;;;;;-0.11;54.27;99007.84;6185172;23;20132;-90
2022/11/17 11:54:13;;;;;;;10.23;2.60;;;;;;;0.44;52.84;99068.69;6160424;23;20027;-94
2022/11/17 11:56:43;;;;;;;5.70;3.03;;;;;;;0.40;52.35;99054.13;6043718;23;20018;-90
2022/11/17 11:59:29;;;;;;;9.30;3.20;;;;;;;0.05;53.17;99037.59;6169202;23;20013;-90
2022/11/17 12:02:13;;;;;;;10.90;3.20;;;;;;;0.31;54.14;99079.81;6135832;23;20017;-92
2022/11/17 12:04:42;;;;;;;12.48;3.47;;;;;;;0.41;54.47;99074.56;6124158;23;20025;-90
2022/11/17 12:07:28;;;;;;;8.75;3.60;;;;;;;0.24;55.25;99065.78;6100141;23;20030;-90
2022/11/17 12:10:04;;;;;;;5.50;2.65;;;;;;;0.11;55.42;99075.03;6045788;23;20046;-91
2022/11/17 12:12:36;;;;;;;7.47;3.38;;;;;;;-0.02;54.33;99037.78;6125377;23;20018;-91
2022/11/17 12:15:19;;;;;;;16.55;3.72;;;;;;;-0.22;55.01;99046.41;6074144;23;20496;-89
2022/11/17 12:17:51;;;;;;;13.20;4.72;;;;;;;-0.38;55.58;99074.09;6074249;23;20014;-92
2022/11/17 12:20:39;;;;;;;29.73;5.30;;;;;;;-0.47;56.94;99069.16;6098743;23;20026;-89
2022/11/17 12:23:49;;;;;;;13.40;4.97;;;;;;;-0.45;56.47;99058.16;6044530;23;20018;-89
2022/11/17 12:26:24;;;;;;;13.80;4.82;;;;;;;-0.41;57.12;99074.59;5986259;23;20024;-94
2022/11/17 12:29:21;;;;;;;13.32;5.57;;;;;;;-0.34;57.88;99073.34;5983585;23;20156;-90
2022/11/17 12:31:48;;;;;;;;;;;;;;;-0.55;58.24;99072.25;5982420;23;20081;-92
2022/11/17 12:34:37;;;;;;;10.15;4.97;;;;;;;-0.70;58.13;99055.91;6010038;23;19952;-89
2022/11/17 12:37:14;;;;;;;13.27;3.70;;;;;;;-0.51;58.18;99067.22;5960812;23;20088;-88
2022/11/17 12:39:58;;;;;;;10.77;5.53;;;;;;;-0.52;58.31;99076.34;6007125;23;20019;-87
2022/11/17 12:42:31;;;;;;;14.85;5.95;;;;;;;-0.74;58.51;99038.69;6000043;23;20025;-87
2022/11/17 12:45:03;;;;;;;12.52;4.50;;;;;;;-0.67;58.46;99063.47;6011182;23;20023;-89
2022/11/17 12:47:33;;;;;;;18.50;5.70;;;;;;;-0.63;58.45;99050.38;6034211;23;20023;-89
2022/11/17 12:50:17;;;;;;;12.80;5.55;;;;;;;-0.38;58.20;99074.09;6036362;23;20038;-86
2022/11/17 12:52:55;;;;;;;34.33;6.75;;;;;;;-0.36;58.25;99069.31;6036173;23;20114;-89
2022/11/17 12:55:44;;;;;;;18.80;5.97;;;;;;;-0.61;58.30;99059.81;5966192;23;20696;-90
2022/11/17 12:58:27;;;;;;;11.95;5.10;;;;;;;-0.52;58.37;99085.19;5988833;23;20162;-88
2022/11/17 13:01:16;;;;;;;10.18;3.88;;;;;;;-0.62;57.58;99086.91;6012859;23;20019;-89
2022/11/17 13:03:56;;;;;;;12.15;4.50;;;;;;;-0.72;56.43;99084.88;6088978;23;20356;-90
2022/11/17 13:06:24;;;;;;;13.98;4.38;;;;;;;-1.04;57.12;99072.03;6160489;23;20493;-90
2022/11/17 13:08:58;;;;;;;8.02;3.92;;;;;;;-1.05;56.79;99088.38;6188766;23;20432;-93
2022/11/17 13:11:25;;;;;;;17.38;4.57;;;;;;;-1.38;56.74;99062.34;6188293;23;20070;-90
2022/11/17 13:14:08;;;;;;;11.43;4.05;;;;;;;-1.14;56.52;99100.56;6136536;23;20044;-92
2022/11/17 13:16:36;;;;;;;11.85;4.30;;;;;;;-1.09;56.00;99097.94;6154737;23;20017;-85
2022/11/17 13:19:23;;;;;;;11.15;4.40;;;;;;;-1.44;56.42;99059.53;6180285;23;20017;-85
2022/11/17 13:21:57;;;;;;;8.75;4.25;;;;;;;-1.55;56.07;99086.41;6179745;23;20087;-85
2022/11/17 13:24:35;;;;;;;9.15;3.63;;;;;;;-1.50;56.11;99083.81;6158001;23;20395;-90
2022/11/17 13:27:07;;;;;;;21.13;4.57;;;;;;;-1.50;55.87;99084.63;6183137;23;20025;-88
2022/11/17 13:29:34;;;;;;;16.23;3.35;;;;;;;-1.73;56.48;99071.31;6155523;23;20019;-85
2022/11/17 13:32:22;;;;;;;11.57;4.20;;;;;;;-1.72;56.71;99086.38;6154287;23;20534;-86
2022/11/17 13:34:59;;;;;;;9.55;4.32;;;;;;;-1.66;57.30;99088.06;6180424;23;20045;-87
2022/11/17 13:37:28;;;;;;;12.68;4.80;;;;;;;-1.44;57.28;99105.13;6150100;23;20032;-89